sensor_id;sensor_type;location;lat;lon;timestamp;P1;durP1;ratioP1;P2;durP2;ratioP2
56794;SDS011;42678;59.400;18.410;2022-09-24T00:00:18;7.10;;;4.47;;
56794;SDS011;42678;59.400;18.410;2022-09-24T00:02:44;10.57;;;4.32;;
56794;SDS011;42678;59.400;18.410;2022-09-24T00:05:09;8.15;;;5.05;;
56794;SDS011;42678;59.400;18.410;2022-09-24T00:07:35;7.15;;;6.03;;
56794;SDS011;42678;59.400;18.410;2022-09-24T00:10:00;7.03;;;5.03;;
56794;SDS011;42678;59.400;18.410;2022-09-24T00:12:26;6.40;;;4.75;;
56794;SDS011;42678;59.400;18.410;2022-09-24T00:14:52;8.18;;;4.25;;
56794;SDS011;42678;59.400;18.410;2022-09-24T00:17:18;7.70;;;4.20;;
56794;SDS011;42678;59.400;18.410;2022-09-24T00:19:44;9.82;;;4.97;;
56794;SDS011;42678;59.400;18.410;2022-09-24T00:22:09;8.15;;;4.63;;
56794;SDS011;42678;59.400;18.410;2022-09-24T00:24:35;7.72;;;4.60;;
56794;SDS011;42678;59.400;18.410;2022-09-24T00:27:19;11.68;;;4.25;;
56794;SDS011;42678;59.400;18.410;2022-09-24T00:29:44;7.60;;;4.50;;
56794;SDS011;42678;59.400;18.410;2022-09-24T00:32:10;6.60;;;4.57;;
56794;SDS011;42678;59.400;18.410;2022-09-24T00:34:37;5.13;;;4.13;;
56794;SDS011;42678;59.400;18.410;2022-09-24T00:37:03;6.97;;;3.80;;
56794;SDS011;42678;59.400;18.410;2022-09-24T00:39:28;6.72;;;3.40;;
56794;SDS011;42678;59.400;18.410;2022-09-24T00:41:54;6.22;;;3.25;;
56794;SDS011;42678;59.400;18.410;2022-09-24T00:47:13;7.20;;;3.35;;
56794;SDS011;42678;59.400;18.410;2022-09-24T00:49:47;6.90;;;3.58;;
56794;SDS011;42678;59.400;18.410;2022-09-24T00:52:15;9.27;;;3.75;;
56794;SDS011;42678;59.400;18.410;2022-09-24T00:54:42;4.10;;;3.45;;
56794;SDS011;42678;59.400;18.410;2022-09-24T00:57:09;8.43;;;3.95;;
56794;SDS011;42678;59.400;18.410;2022-09-24T00:59:37;6.07;;;3.35;;
56794;SDS011;42678;59.400;18.410;2022-09-24T01:02:04;6.20;;;3.83;;
56794;SDS011;42678;59.400;18.410;2022-09-24T01:04:31;8.48;;;3.88;;
56794;SDS011;42678;59.400;18.410;2022-09-24T01:06:57;4.95;;;3.35;;
56794;SDS011;42678;59.400;18.410;2022-09-24T01:09:24;7.28;;;4.00;;
56794;SDS011;42678;59.400;18.410;2022-09-24T01:17:21;6.65;;;3.30;;
56794;SDS011;42678;59.400;18.410;2022-09-24T01:20:08;10.98;;;3.88;;
56794;SDS011;42678;59.400;18.410;2022-09-24T01:22:53;6.80;;;3.45;;
56794;SDS011;42678;59.400;18.410;2022-09-24T01:28:40;7.90;;;3.63;;
56794;SDS011;42678;59.400;18.410;2022-09-24T01:33:58;5.03;;;3.25;;
56794;SDS011;42678;59.400;18.410;2022-09-24T01:36:30;7.43;;;3.58;;
56794;SDS011;42678;59.400;18.410;2022-09-24T01:38:58;11.43;;;3.45;;
56794;SDS011;42678;59.400;18.410;2022-09-24T01:41:27;5.47;;;2.90;;
56794;SDS011;42678;59.400;18.410;2022-09-24T01:43:53;6.60;;;3.05;;
56794;SDS011;42678;59.400;18.410;2022-09-24T01:46:19;6.13;;;2.65;;
56794;SDS011;42678;59.400;18.410;2022-09-24T01:48:46;3.88;;;2.70;;
56794;SDS011;42678;59.400;18.410;2022-09-24T01:51:14;6.97;;;2.90;;
56794;SDS011;42678;59.400;18.410;2022-09-24T01:54:15;8.68;;;3.40;;
56794;SDS011;42678;59.400;18.410;2022-09-24T01:56:46;4.78;;;3.40;;
56794;SDS011;42678;59.400;18.410;2022-09-24T02:02:03;4.68;;;2.83;;
56794;SDS011;42678;59.400;18.410;2022-09-24T02:04:35;6.47;;;2.97;;
56794;SDS011;42678;59.400;18.410;2022-09-24T02:07:09;5.82;;;3.30;;
56794;SDS011;42678;59.400;18.410;2022-09-24T02:09:41;7.95;;;3.20;;
56794;SDS011;42678;59.400;18.410;2022-09-24T02:12:13;5.80;;;3.08;;
56794;SDS011;42678;59.400;18.410;2022-09-24T02:14:44;8.32;;;3.00;;
56794;SDS011;42678;59.400;18.410;2022-09-24T02:17:16;4.32;;;3.10;;
56794;SDS011;42678;59.400;18.410;2022-09-24T02:19:43;7.18;;;2.88;;
56794;SDS011;42678;59.400;18.410;2022-09-24T02:22:10;6.10;;;2.65;;
56794;SDS011;42678;59.400;18.410;2022-09-24T02:24:46;7.18;;;3.33;;
56794;SDS011;42678;59.400;18.410;2022-09-24T02:27:15;9.52;;;3.33;;
56794;SDS011;42678;59.400;18.410;2022-09-24T02:29:41;5.38;;;3.10;;
56794;SDS011;42678;59.400;18.410;2022-09-24T02:32:09;5.95;;;2.75;;
56794;SDS011;42678;59.400;18.410;2022-09-24T02:34:41;5.13;;;2.80;;
56794;SDS011;42678;59.400;18.410;2022-09-24T02:37:11;7.85;;;2.95;;
56794;SDS011;42678;59.400;18.410;2022-09-24T02:39:38;6.28;;;3.10;;
56794;SDS011;42678;59.400;18.410;2022-09-24T02:42:04;6.35;;;3.30;;
56794;SDS011;42678;59.400;18.410;2022-09-24T02:44:32;3.95;;;3.22;;
56794;SDS011;42678;59.400;18.410;2022-09-24T02:46:58;5.55;;;2.88;;
56794;SDS011;42678;59.400;18.410;2022-09-24T02:49:23;6.20;;;2.97;;
56794;SDS011;42678;59.400;18.410;2022-09-24T02:51:49;5.30;;;3.42;;
56794;SDS011;42678;59.400;18.410;2022-09-24T02:54:15;6.43;;;2.83;;
56794;SDS011;42678;59.400;18.410;2022-09-24T02:56:40;10.68;;;2.65;;
56794;SDS011;42678;59.400;18.410;2022-09-24T02:59:06;7.70;;;3.10;;
56794;SDS011;42678;59.400;18.410;2022-09-24T03:01:32;6.13;;;2.88;;
56794;SDS011;42678;59.400;18.410;2022-09-24T03:03:59;6.80;;;2.70;;
56794;SDS011;42678;59.400;18.410;2022-09-24T03:06:25;3.83;;;2.42;;
56794;SDS011;42678;59.400;18.410;2022-09-24T03:08:51;7.32;;;3.15;;
56794;SDS011;42678;59.400;18.410;2022-09-24T03:11:20;8.32;;;3.22;;
56794;SDS011;42678;59.400;18.410;2022-09-24T03:13:46;6.68;;;2.70;;
56794;SDS011;42678;59.400;18.410;2022-09-24T03:16:13;6.07;;;3.30;;
56794;SDS011;42678;59.400;18.410;2022-09-24T03:18:39;7.13;;;3.88;;
56794;SDS011;42678;59.400;18.410;2022-09-24T03:21:06;6.35;;;3.13;;
56794;SDS011;42678;59.400;18.410;2022-09-24T03:23:34;6.70;;;3.53;;
56794;SDS011;42678;59.400;18.410;2022-09-24T03:26:00;5.00;;;2.97;;
56794;SDS011;42678;59.400;18.410;2022-09-24T03:28:26;4.97;;;2.10;;
56794;SDS011;42678;59.400;18.410;2022-09-24T03:30:52;9.73;;;2.53;;
56794;SDS011;42678;59.400;18.410;2022-09-24T03:33:28;7.03;;;3.25;;
56794;SDS011;42678;59.400;18.410;2022-09-24T03:38:33;6.20;;;3.13;;
56794;SDS011;42678;59.400;18.410;2022-09-24T03:41:00;13.10;;;2.60;;
56794;SDS011;42678;59.400;18.410;2022-09-24T03:43:27;6.13;;;2.60;;
56794;SDS011;42678;59.400;18.410;2022-09-24T03:45:52;4.70;;;2.90;;
56794;SDS011;42678;59.400;18.410;2022-09-24T03:48:19;4.95;;;2.53;;
56794;SDS011;42678;59.400;18.410;2022-09-24T03:50:46;7.32;;;2.30;;
56794;SDS011;42678;59.400;18.410;2022-09-24T03:53:12;8.68;;;2.55;;
56794;SDS011;42678;59.400;18.410;2022-09-24T03:55:42;4.80;;;2.20;;
56794;SDS011;42678;59.400;18.410;2022-09-24T03:58:09;3.55;;;2.10;;
56794;SDS011;42678;59.400;18.410;2022-09-24T04:00:35;4.68;;;2.17;;
56794;SDS011;42678;59.400;18.410;2022-09-24T04:03:01;3.20;;;2.15;;
56794;SDS011;42678;59.400;18.410;2022-09-24T04:05:26;3.72;;;2.45;;
56794;SDS011;42678;59.400;18.410;2022-09-24T04:07:54;4.15;;;2.50;;
56794;SDS011;42678;59.400;18.410;2022-09-24T04:10:20;5.35;;;2.42;;
56794;SDS011;42678;59.400;18.410;2022-09-24T04:12:49;2.33;;;2.08;;
56794;SDS011;42678;59.400;18.410;2022-09-24T04:15:15;6.68;;;2.67;;
56794;SDS011;42678;59.400;18.410;2022-09-24T04:17:48;5.13;;;2.58;;
56794;SDS011;42678;59.400;18.410;2022-09-24T04:20:15;4.72;;;2.15;;
56794;SDS011;42678;59.400;18.410;2022-09-24T04:22:40;5.68;;;2.05;;
56794;SDS011;42678;59.400;18.410;2022-09-24T04:25:07;4.53;;;2.55;;
56794;SDS011;42678;59.400;18.410;2022-09-24T04:27:32;8.95;;;3.17;;
56794;SDS011;42678;59.400;18.410;2022-09-24T04:30:00;4.55;;;2.30;;
56794;SDS011;42678;59.400;18.410;2022-09-24T04:32:25;3.45;;;2.65;;
56794;SDS011;42678;59.400;18.410;2022-09-24T04:34:51;5.07;;;2.53;;
56794;SDS011;42678;59.400;18.410;2022-09-24T04:37:17;6.35;;;2.92;;
56794;SDS011;42678;59.400;18.410;2022-09-24T04:39:42;7.20;;;2.22;;
56794;SDS011;42678;59.400;18.410;2022-09-24T04:42:08;7.65;;;2.72;;
56794;SDS011;42678;59.400;18.410;2022-09-24T04:44:33;6.47;;;2.97;;
56794;SDS011;42678;59.400;18.410;2022-09-24T04:46:59;4.30;;;2.35;;
56794;SDS011;42678;59.400;18.410;2022-09-24T04:49:26;3.25;;;1.90;;
56794;SDS011;42678;59.400;18.410;2022-09-24T04:51:51;6.97;;;2.90;;
56794;SDS011;42678;59.400;18.410;2022-09-24T04:54:17;7.85;;;3.05;;
56794;SDS011;42678;59.400;18.410;2022-09-24T04:56:43;3.40;;;2.10;;
56794;SDS011;42678;59.400;18.410;2022-09-24T04:59:08;4.70;;;2.58;;
56794;SDS011;42678;59.400;18.410;2022-09-24T05:01:34;5.72;;;2.63;;
56794;SDS011;42678;59.400;18.410;2022-09-24T05:04:00;7.65;;;2.72;;
56794;SDS011;42678;59.400;18.410;2022-09-24T05:06:26;5.05;;;3.00;;
56794;SDS011;42678;59.400;18.410;2022-09-24T05:08:51;7.07;;;2.35;;
56794;SDS011;42678;59.400;18.410;2022-09-24T05:11:17;6.40;;;2.42;;
56794;SDS011;42678;59.400;18.410;2022-09-24T05:13:43;5.15;;;3.33;;
56794;SDS011;42678;59.400;18.410;2022-09-24T05:16:09;6.20;;;2.85;;
56794;SDS011;42678;59.400;18.410;2022-09-24T05:18:35;4.03;;;2.78;;
56794;SDS011;42678;59.400;18.410;2022-09-24T05:21:01;6.35;;;3.10;;
56794;SDS011;42678;59.400;18.410;2022-09-24T05:23:27;4.25;;;2.40;;
56794;SDS011;42678;59.400;18.410;2022-09-24T05:25:54;4.43;;;2.13;;
56794;SDS011;42678;59.400;18.410;2022-09-24T05:28:38;7.05;;;2.50;;
56794;SDS011;42678;59.400;18.410;2022-09-24T05:31:04;3.75;;;2.15;;
56794;SDS011;42678;59.400;18.410;2022-09-24T05:33:30;5.32;;;2.25;;
56794;SDS011;42678;59.400;18.410;2022-09-24T05:35:56;5.82;;;2.35;;
56794;SDS011;42678;59.400;18.410;2022-09-24T05:38:24;6.53;;;2.50;;
56794;SDS011;42678;59.400;18.410;2022-09-24T05:40:50;5.03;;;2.85;;
56794;SDS011;42678;59.400;18.410;2022-09-24T05:43:16;5.38;;;2.78;;
56794;SDS011;42678;59.400;18.410;2022-09-24T05:45:45;4.20;;;2.10;;
56794;SDS011;42678;59.400;18.410;2022-09-24T05:48:11;3.45;;;2.25;;
56794;SDS011;42678;59.400;18.410;2022-09-24T05:50:37;4.78;;;2.35;;
56794;SDS011;42678;59.400;18.410;2022-09-24T05:53:03;3.70;;;2.67;;
56794;SDS011;42678;59.400;18.410;2022-09-24T05:55:30;3.35;;;2.17;;
56794;SDS011;42678;59.400;18.410;2022-09-24T05:58:06;4.88;;;2.47;;
56794;SDS011;42678;59.400;18.410;2022-09-24T06:00:34;6.65;;;2.60;;
56794;SDS011;42678;59.400;18.410;2022-09-24T06:03:01;5.03;;;2.67;;
56794;SDS011;42678;59.400;18.410;2022-09-24T06:05:32;7.68;;;2.55;;
56794;SDS011;42678;59.400;18.410;2022-09-24T06:08:00;4.60;;;2.65;;
56794;SDS011;42678;59.400;18.410;2022-09-24T06:10:27;8.20;;;3.15;;
56794;SDS011;42678;59.400;18.410;2022-09-24T06:12:52;4.22;;;1.83;;
56794;SDS011;42678;59.400;18.410;2022-09-24T06:15:19;7.18;;;2.45;;
56794;SDS011;42678;59.400;18.410;2022-09-24T06:17:45;6.88;;;2.30;;
56794;SDS011;42678;59.400;18.410;2022-09-24T06:20:11;5.85;;;2.78;;
56794;SDS011;42678;59.400;18.410;2022-09-24T06:22:38;6.55;;;2.33;;
56794;SDS011;42678;59.400;18.410;2022-09-24T06:25:04;7.15;;;2.65;;
56794;SDS011;42678;59.400;18.410;2022-09-24T06:27:31;5.30;;;2.65;;
56794;SDS011;42678;59.400;18.410;2022-09-24T06:29:56;5.80;;;3.00;;
56794;SDS011;42678;59.400;18.410;2022-09-24T06:32:22;5.40;;;2.60;;
56794;SDS011;42678;59.400;18.410;2022-09-24T06:34:48;5.70;;;2.53;;
56794;SDS011;42678;59.400;18.410;2022-09-24T06:37:14;4.70;;;2.28;;
56794;SDS011;42678;59.400;18.410;2022-09-24T06:39:40;5.57;;;2.42;;
56794;SDS011;42678;59.400;18.410;2022-09-24T06:42:06;3.50;;;2.40;;
56794;SDS011;42678;59.400;18.410;2022-09-24T06:44:33;4.13;;;2.60;;
56794;SDS011;42678;59.400;18.410;2022-09-24T06:47:00;3.85;;;2.40;;
56794;SDS011;42678;59.400;18.410;2022-09-24T06:49:26;5.63;;;2.78;;
56794;SDS011;42678;59.400;18.410;2022-09-24T06:51:53;5.70;;;2.80;;
56794;SDS011;42678;59.400;18.410;2022-09-24T06:54:20;4.18;;;2.58;;
56794;SDS011;42678;59.400;18.410;2022-09-24T06:56:46;7.85;;;2.63;;
56794;SDS011;42678;59.400;18.410;2022-09-24T06:59:12;6.72;;;3.10;;
56794;SDS011;42678;59.400;18.410;2022-09-24T07:01:38;6.05;;;2.90;;
56794;SDS011;42678;59.400;18.410;2022-09-24T07:04:04;5.88;;;3.25;;
56794;SDS011;42678;59.400;18.410;2022-09-24T07:06:30;3.17;;;2.85;;
56794;SDS011;42678;59.400;18.410;2022-09-24T07:09:17;5.75;;;2.72;;
56794;SDS011;42678;59.400;18.410;2022-09-24T07:11:43;3.55;;;2.90;;
56794;SDS011;42678;59.400;18.410;2022-09-24T07:14:12;3.30;;;2.58;;
56794;SDS011;42678;59.400;18.410;2022-09-24T07:16:38;4.05;;;2.38;;
56794;SDS011;42678;59.400;18.410;2022-09-24T07:19:03;6.63;;;3.05;;
56794;SDS011;42678;59.400;18.410;2022-09-24T07:21:29;4.72;;;2.40;;
56794;SDS011;42678;59.400;18.410;2022-09-24T07:23:55;4.13;;;2.65;;
56794;SDS011;42678;59.400;18.410;2022-09-24T07:26:20;3.92;;;2.90;;
56794;SDS011;42678;59.400;18.410;2022-09-24T07:28:46;7.63;;;2.75;;
56794;SDS011;42678;59.400;18.410;2022-09-24T07:31:11;3.63;;;2.40;;
56794;SDS011;42678;59.400;18.410;2022-09-24T07:33:37;6.72;;;2.70;;
56794;SDS011;42678;59.400;18.410;2022-09-24T07:36:03;5.78;;;2.50;;
56794;SDS011;42678;59.400;18.410;2022-09-24T07:38:32;4.43;;;2.58;;
56794;SDS011;42678;59.400;18.410;2022-09-24T07:41:00;3.92;;;2.35;;
56794;SDS011;42678;59.400;18.410;2022-09-24T07:43:28;3.47;;;2.40;;
56794;SDS011;42678;59.400;18.410;2022-09-24T07:45:56;4.30;;;2.65;;
56794;SDS011;42678;59.400;18.410;2022-09-24T07:48:22;8.13;;;2.75;;
56794;SDS011;42678;59.400;18.410;2022-09-24T07:50:48;5.35;;;2.55;;
56794;SDS011;42678;59.400;18.410;2022-09-24T07:53:16;5.25;;;3.05;;
56794;SDS011;42678;59.400;18.410;2022-09-24T07:55:42;10.73;;;3.60;;
56794;SDS011;42678;59.400;18.410;2022-09-24T07:58:10;4.95;;;2.80;;
56794;SDS011;42678;59.400;18.410;2022-09-24T08:00:41;5.30;;;2.47;;
56794;SDS011;42678;59.400;18.410;2022-09-24T08:03:07;5.72;;;2.58;;
56794;SDS011;42678;59.400;18.410;2022-09-24T08:05:32;4.05;;;2.20;;
56794;SDS011;42678;59.400;18.410;2022-09-24T08:07:58;4.53;;;2.60;;
56794;SDS011;42678;59.400;18.410;2022-09-24T08:10:24;3.88;;;2.47;;
56794;SDS011;42678;59.400;18.410;2022-09-24T08:12:52;8.48;;;2.42;;
56794;SDS011;42678;59.400;18.410;2022-09-24T08:15:18;3.08;;;1.80;;
56794;SDS011;42678;59.400;18.410;2022-09-24T08:17:44;6.63;;;2.58;;
56794;SDS011;42678;59.400;18.410;2022-09-24T08:20:10;3.80;;;1.88;;
56794;SDS011;42678;59.400;18.410;2022-09-24T08:22:36;3.50;;;1.40;;
56794;SDS011;42678;59.400;18.410;2022-09-24T08:25:02;3.65;;;2.20;;
56794;SDS011;42678;59.400;18.410;2022-09-24T08:27:30;7.43;;;2.03;;
56794;SDS011;42678;59.400;18.410;2022-09-24T08:29:57;1.98;;;1.60;;
56794;SDS011;42678;59.400;18.410;2022-09-24T08:32:24;2.40;;;1.38;;
56794;SDS011;42678;59.400;18.410;2022-09-24T08:34:51;4.32;;;1.70;;
56794;SDS011;42678;59.400;18.410;2022-09-24T08:37:16;4.15;;;1.33;;
56794;SDS011;42678;59.400;18.410;2022-09-24T08:39:42;3.83;;;1.60;;
56794;SDS011;42678;59.400;18.410;2022-09-24T08:42:12;3.80;;;1.50;;
56794;SDS011;42678;59.400;18.410;2022-09-24T08:44:45;8.20;;;3.55;;
56794;SDS011;42678;59.400;18.410;2022-09-24T08:50:14;3.28;;;1.40;;
56794;SDS011;42678;59.400;18.410;2022-09-24T08:53:09;3.40;;;1.40;;
56794;SDS011;42678;59.400;18.410;2022-09-24T08:55:48;4.30;;;1.80;;
56794;SDS011;42678;59.400;18.410;2022-09-24T09:06:04;3.17;;;1.10;;
56794;SDS011;42678;59.400;18.410;2022-09-24T09:08:55;4.43;;;1.70;;
56794;SDS011;42678;59.400;18.410;2022-09-24T09:11:33;4.00;;;1.23;;
56794;SDS011;42678;59.400;18.410;2022-09-24T09:14:03;6.32;;;1.10;;
56794;SDS011;42678;59.400;18.410;2022-09-24T09:19:10;4.78;;;1.48;;
56794;SDS011;42678;59.400;18.410;2022-09-24T09:21:41;1.38;;;0.98;;
56794;SDS011;42678;59.400;18.410;2022-09-24T09:24:16;4.60;;;1.38;;
56794;SDS011;42678;59.400;18.410;2022-09-24T09:26:50;3.03;;;0.95;;
56794;SDS011;42678;59.400;18.410;2022-09-24T09:29:19;2.55;;;1.15;;
56794;SDS011;42678;59.400;18.410;2022-09-24T09:31:58;2.80;;;1.27;;
56794;SDS011;42678;59.400;18.410;2022-09-24T09:34:50;6.93;;;1.38;;
56794;SDS011;42678;59.400;18.410;2022-09-24T09:43:01;5.40;;;1.25;;
56794;SDS011;42678;59.400;18.410;2022-09-24T09:45:37;1.75;;;0.95;;
56794;SDS011;42678;59.400;18.410;2022-09-24T09:48:07;3.03;;;1.30;;
56794;SDS011;42678;59.400;18.410;2022-09-24T09:53:16;6.90;;;1.50;;
56794;SDS011;42678;59.400;18.410;2022-09-24T09:55:51;3.90;;;1.50;;
56794;SDS011;42678;59.400;18.410;2022-09-24T10:01:08;2.58;;;1.27;;
56794;SDS011;42678;59.400;18.410;2022-09-24T10:06:10;8.88;;;2.70;;
56794;SDS011;42678;59.400;18.410;2022-09-24T10:08:38;3.50;;;1.33;;
56794;SDS011;42678;59.400;18.410;2022-09-24T10:11:04;2.70;;;1.25;;
56794;SDS011;42678;59.400;18.410;2022-09-24T10:13:32;6.15;;;1.30;;
56794;SDS011;42678;59.400;18.410;2022-09-24T10:15:59;3.33;;;1.30;;
56794;SDS011;42678;59.400;18.410;2022-09-24T10:21:23;7.47;;;2.33;;
56794;SDS011;42678;59.400;18.410;2022-09-24T10:23:57;3.22;;;1.58;;
56794;SDS011;42678;59.400;18.410;2022-09-24T10:26:35;2.63;;;1.63;;
56794;SDS011;42678;59.400;18.410;2022-09-24T10:29:03;3.58;;;1.27;;
56794;SDS011;42678;59.400;18.410;2022-09-24T10:31:49;5.25;;;1.50;;
56794;SDS011;42678;59.400;18.410;2022-09-24T10:34:23;3.60;;;1.38;;
56794;SDS011;42678;59.400;18.410;2022-09-24T10:36:58;3.53;;;1.10;;
56794;SDS011;42678;59.400;18.410;2022-09-24T10:39:26;4.07;;;1.38;;
56794;SDS011;42678;59.400;18.410;2022-09-24T10:41:54;4.82;;;1.80;;
56794;SDS011;42678;59.400;18.410;2022-09-24T10:44:25;4.10;;;1.75;;
56794;SDS011;42678;59.400;18.410;2022-09-24T11:09:22;5.97;;;1.60;;
56794;SDS011;42678;59.400;18.410;2022-09-24T11:12:12;6.85;;;1.90;;
56794;SDS011;42678;59.400;18.410;2022-09-24T11:14:53;2.85;;;1.30;;
56794;SDS011;42678;59.400;18.410;2022-09-24T11:17:49;2.80;;;1.08;;
56794;SDS011;42678;59.400;18.410;2022-09-24T11:20:38;2.92;;;1.30;;
56794;SDS011;42678;59.400;18.410;2022-09-24T11:23:08;3.40;;;1.20;;
56794;SDS011;42678;59.400;18.410;2022-09-24T11:28:51;4.53;;;1.60;;
56794;SDS011;42678;59.400;18.410;2022-09-24T11:42:35;6.97;;;2.20;;
56794;SDS011;42678;59.400;18.410;2022-09-24T11:44:52;2.33;;;1.25;;
56794;SDS011;42678;59.400;18.410;2022-09-24T11:53:12;3.65;;;2.00;;
56794;SDS011;42678;59.400;18.410;2022-09-24T11:55:41;3.85;;;1.50;;
56794;SDS011;42678;59.400;18.410;2022-09-24T11:58:22;4.20;;;2.00;;
56794;SDS011;42678;59.400;18.410;2022-09-24T12:00:54;3.72;;;2.30;;
56794;SDS011;42678;59.400;18.410;2022-09-24T12:06:06;3.83;;;1.80;;
56794;SDS011;42678;59.400;18.410;2022-09-24T12:11:19;6.07;;;1.70;;
56794;SDS011;42678;59.400;18.410;2022-09-24T12:14:06;5.18;;;1.50;;
56794;SDS011;42678;59.400;18.410;2022-09-24T12:16:39;2.03;;;1.38;;
56794;SDS011;42678;59.400;18.410;2022-09-24T12:19:19;3.63;;;1.48;;
56794;SDS011;42678;59.400;18.410;2022-09-24T12:21:55;3.40;;;1.63;;
56794;SDS011;42678;59.400;18.410;2022-09-24T12:27:21;7.55;;;1.85;;
56794;SDS011;42678;59.400;18.410;2022-09-24T12:30:20;4.80;;;1.77;;
56794;SDS011;42678;59.400;18.410;2022-09-24T12:33:28;4.93;;;1.50;;
56794;SDS011;42678;59.400;18.410;2022-09-24T12:36:13;2.67;;;1.73;;
56794;SDS011;42678;59.400;18.410;2022-09-24T12:38:51;5.22;;;1.45;;
56794;SDS011;42678;59.400;18.410;2022-09-24T12:44:14;4.57;;;1.77;;
56794;SDS011;42678;59.400;18.410;2022-09-24T12:52:03;4.88;;;1.50;;
56794;SDS011;42678;59.400;18.410;2022-09-24T12:54:42;3.67;;;1.67;;
56794;SDS011;42678;59.400;18.410;2022-09-24T12:57:16;3.58;;;1.27;;
56794;SDS011;42678;59.400;18.410;2022-09-24T12:59:46;3.35;;;1.40;;
56794;SDS011;42678;59.400;18.410;2022-09-24T13:02:15;2.53;;;1.33;;
56794;SDS011;42678;59.400;18.410;2022-09-24T13:04:43;4.63;;;1.00;;
56794;SDS011;42678;59.400;18.410;2022-09-24T13:07:28;6.07;;;1.80;;
56794;SDS011;42678;59.400;18.410;2022-09-24T13:09:56;4.05;;;1.35;;
56794;SDS011;42678;59.400;18.410;2022-09-24T13:12:33;3.25;;;1.25;;
56794;SDS011;42678;59.400;18.410;2022-09-24T13:15:06;13.57;;;1.90;;
56794;SDS011;42678;59.400;18.410;2022-09-24T13:17:39;3.72;;;1.27;;
56794;SDS011;42678;59.400;18.410;2022-09-24T13:20:06;5.47;;;1.27;;
56794;SDS011;42678;59.400;18.410;2022-09-24T13:22:41;3.35;;;1.35;;
56794;SDS011;42678;59.400;18.410;2022-09-24T13:27:33;2.63;;;1.15;;
56794;SDS011;42678;59.400;18.410;2022-09-24T13:32:48;3.50;;;1.15;;
56794;SDS011;42678;59.400;18.410;2022-09-24T13:35:17;5.95;;;1.65;;
56794;SDS011;42678;59.400;18.410;2022-09-24T13:37:49;3.53;;;1.48;;
56794;SDS011;42678;59.400;18.410;2022-09-24T13:40:22;3.60;;;1.23;;
56794;SDS011;42678;59.400;18.410;2022-09-24T13:42:59;11.95;;;2.33;;
56794;SDS011;42678;59.400;18.410;2022-09-24T13:45:29;8.80;;;1.67;;
56794;SDS011;42678;59.400;18.410;2022-09-24T13:48:04;7.47;;;1.75;;
56794;SDS011;42678;59.400;18.410;2022-09-24T13:50:38;2.85;;;1.05;;
56794;SDS011;42678;59.400;18.410;2022-09-24T13:53:13;4.30;;;1.80;;
56794;SDS011;42678;59.400;18.410;2022-09-24T13:56:06;2.67;;;2.08;;
56794;SDS011;42678;59.400;18.410;2022-09-24T13:58:37;5.07;;;1.40;;
56794;SDS011;42678;59.400;18.410;2022-09-24T14:01:12;3.83;;;1.40;;
56794;SDS011;42678;59.400;18.410;2022-09-24T14:03:52;2.47;;;1.80;;
56794;SDS011;42678;59.400;18.410;2022-09-24T14:06:23;5.20;;;1.77;;
56794;SDS011;42678;59.400;18.410;2022-09-24T14:08:58;4.40;;;1.52;;
56794;SDS011;42678;59.400;18.410;2022-09-24T14:11:25;3.53;;;1.08;;
56794;SDS011;42678;59.400;18.410;2022-09-24T14:13:52;3.78;;;1.63;;
56794;SDS011;42678;59.400;18.410;2022-09-24T14:16:24;7.18;;;1.88;;
56794;SDS011;42678;59.400;18.410;2022-09-24T14:19:03;4.43;;;1.83;;
56794;SDS011;42678;59.400;18.410;2022-09-24T14:26:40;2.60;;;1.60;;
56794;SDS011;42678;59.400;18.410;2022-09-24T14:29:18;3.67;;;1.60;;
56794;SDS011;42678;59.400;18.410;2022-09-24T14:31:53;2.88;;;1.33;;
56794;SDS011;42678;59.400;18.410;2022-09-24T14:34:26;3.25;;;1.75;;
56794;SDS011;42678;59.400;18.410;2022-09-24T14:39:47;7.57;;;1.70;;
56794;SDS011;42678;59.400;18.410;2022-09-24T14:42:37;3.60;;;1.40;;
56794;SDS011;42678;59.400;18.410;2022-09-24T14:45:16;6.18;;;1.50;;
56794;SDS011;42678;59.400;18.410;2022-09-24T14:47:45;4.38;;;1.30;;
56794;SDS011;42678;59.400;18.410;2022-09-24T14:50:23;5.95;;;2.13;;
56794;SDS011;42678;59.400;18.410;2022-09-24T14:52:55;8.98;;;1.83;;
56794;SDS011;42678;59.400;18.410;2022-09-24T14:55:24;4.85;;;2.25;;
56794;SDS011;42678;59.400;18.410;2022-09-24T14:58:00;2.95;;;1.60;;
56794;SDS011;42678;59.400;18.410;2022-09-24T15:00:27;2.78;;;1.50;;
56794;SDS011;42678;59.400;18.410;2022-09-24T15:02:57;4.07;;;1.77;;
56794;SDS011;42678;59.400;18.410;2022-09-24T15:05:39;3.72;;;1.67;;
56794;SDS011;42678;59.400;18.410;2022-09-24T15:08:24;1.75;;;1.25;;
56794;SDS011;42678;59.400;18.410;2022-09-24T15:10:55;6.55;;;1.80;;
56794;SDS011;42678;59.400;18.410;2022-09-24T15:13:24;5.95;;;1.90;;
56794;SDS011;42678;59.400;18.410;2022-09-24T15:16:04;4.40;;;1.92;;
56794;SDS011;42678;59.400;18.410;2022-09-24T15:18:51;2.90;;;1.60;;
56794;SDS011;42678;59.400;18.410;2022-09-24T15:21:22;5.80;;;1.95;;
56794;SDS011;42678;59.400;18.410;2022-09-24T15:23:48;7.65;;;1.65;;
56794;SDS011;42678;59.400;18.410;2022-09-24T15:26:13;2.53;;;1.48;;
56794;SDS011;42678;59.400;18.410;2022-09-24T15:28:40;6.32;;;1.60;;
56794;SDS011;42678;59.400;18.410;2022-09-24T15:31:07;6.00;;;1.92;;
56794;SDS011;42678;59.400;18.410;2022-09-24T15:33:33;4.35;;;1.63;;
56794;SDS011;42678;59.400;18.410;2022-09-24T15:35:59;3.30;;;1.92;;
56794;SDS011;42678;59.400;18.410;2022-09-24T15:38:24;5.30;;;1.80;;
56794;SDS011;42678;59.400;18.410;2022-09-24T15:40:50;6.30;;;2.03;;
56794;SDS011;42678;59.400;18.410;2022-09-24T15:43:21;3.38;;;1.75;;
56794;SDS011;42678;59.400;18.410;2022-09-24T15:45:49;10.00;;;2.10;;
56794;SDS011;42678;59.400;18.410;2022-09-24T15:48:15;5.00;;;1.48;;
56794;SDS011;42678;59.400;18.410;2022-09-24T15:50:43;4.60;;;2.13;;
56794;SDS011;42678;59.400;18.410;2022-09-24T15:53:20;3.70;;;1.30;;
56794;SDS011;42678;59.400;18.410;2022-09-24T15:55:49;5.13;;;1.60;;
56794;SDS011;42678;59.400;18.410;2022-09-24T15:58:21;4.60;;;1.75;;
56794;SDS011;42678;59.400;18.410;2022-09-24T16:00:47;9.07;;;2.20;;
56794;SDS011;42678;59.400;18.410;2022-09-24T16:03:18;4.13;;;1.63;;
56794;SDS011;42678;59.400;18.410;2022-09-24T16:05:46;6.78;;;1.90;;
56794;SDS011;42678;59.400;18.410;2022-09-24T16:08:12;3.92;;;1.65;;
56794;SDS011;42678;59.400;18.410;2022-09-24T16:10:38;6.55;;;2.25;;
56794;SDS011;42678;59.400;18.410;2022-09-24T16:13:04;9.45;;;3.85;;
56794;SDS011;42678;59.400;18.410;2022-09-24T16:15:30;7.97;;;5.20;;
56794;SDS011;42678;59.400;18.410;2022-09-24T16:17:56;6.03;;;4.22;;
56794;SDS011;42678;59.400;18.410;2022-09-24T16:20:21;8.18;;;6.40;;
56794;SDS011;42678;59.400;18.410;2022-09-24T16:22:47;10.60;;;4.97;;
56794;SDS011;42678;59.400;18.410;2022-09-24T16:25:12;10.02;;;4.85;;
56794;SDS011;42678;59.400;18.410;2022-09-24T16:27:38;7.65;;;4.30;;
56794;SDS011;42678;59.400;18.410;2022-09-24T16:30:05;7.47;;;3.92;;
56794;SDS011;42678;59.400;18.410;2022-09-24T16:32:31;5.97;;;2.13;;
56794;SDS011;42678;59.400;18.410;2022-09-24T16:34:57;3.55;;;2.10;;
56794;SDS011;42678;59.400;18.410;2022-09-24T16:37:23;6.28;;;2.17;;
56794;SDS011;42678;59.400;18.410;2022-09-24T16:39:49;4.47;;;2.08;;
56794;SDS011;42678;59.400;18.410;2022-09-24T16:42:15;8.35;;;2.78;;
56794;SDS011;42678;59.400;18.410;2022-09-24T16:44:41;5.65;;;2.13;;
56794;SDS011;42678;59.400;18.410;2022-09-24T16:47:06;5.80;;;1.90;;
56794;SDS011;42678;59.400;18.410;2022-09-24T16:49:32;3.72;;;1.55;;